createdAt,value
2022-11-15T00:00:54.186Z,71.71
2022-11-15T00:03:40.215Z,71.53
2022-11-15T00:06:26.634Z,71.29
2022-11-15T00:09:12.793Z,71.24
2022-11-15T00:11:58.525Z,71.44
2022-11-15T00:14:44.367Z,71.74
2022-11-15T00:17:30.982Z,71.42
2022-11-15T00:20:17.215Z,71.70
2022-11-15T00:23:05.582Z,71.99
2022-11-15T00:25:59.203Z,72.50
2022-11-15T00:28:45.702Z,72.09
2022-11-15T00:31:31.385Z,72.45
2022-11-15T00:34:17.121Z,72.32
2022-11-15T00:37:03.052Z,71.91
2022-11-15T00:39:49.503Z,71.81
2022-11-15T00:42:35.204Z,71.53
2022-11-15T00:45:21.017Z,71.40
2022-11-15T00:48:09.746Z,71.54
2022-11-15T00:50:55.558Z,71.58
2022-11-15T00:53:41.363Z,71.78
2022-11-15T00:56:27.348Z,71.56
2022-11-15T00:59:13.255Z,71.47
2022-11-15T01:01:58.324Z,71.48
2022-11-15T01:04:44.154Z,71.62
2022-11-15T01:07:29.334Z,71.50
2022-11-15T01:10:17.076Z,71.49
2022-11-15T01:13:03.136Z,71.24
2022-11-15T01:15:48.983Z,71.42
2022-11-15T01:18:35.285Z,71.34
2022-11-15T01:21:21.571Z,71.71
2022-11-15T01:24:07.803Z,71.40
2022-11-15T01:26:53.793Z,71.90
2022-11-15T01:29:39.883Z,71.75
2022-11-15T01:32:25.526Z,71.62
2022-11-15T01:35:11.715Z,71.69
2022-11-15T01:37:57.208Z,71.71
2022-11-15T01:40:42.894Z,71.83
2022-11-15T01:43:32.343Z,71.75
2022-11-15T01:46:36.877Z,71.66
2022-11-15T01:49:24.805Z,71.45
2022-11-15T01:52:17.864Z,71.52
2022-11-15T01:55:12.059Z,71.59
2022-11-15T01:58:05.391Z,71.83
2022-11-15T02:00:51.509Z,71.81
2022-11-15T02:04:01.877Z,71.95
2022-11-15T02:06:49.430Z,71.92
2022-11-15T02:09:37.803Z,71.88
2022-11-15T02:12:23.657Z,71.64
2022-11-15T02:15:09.851Z,71.54
2022-11-15T02:18:00.915Z,71.55
2022-11-15T02:21:07.090Z,71.73
2022-11-15T02:24:20.745Z,71.95
2022-11-15T02:27:12.377Z,71.67
2022-11-15T02:30:16.190Z,71.75
2022-11-15T02:33:08.662Z,71.49
2022-11-15T02:35:59.477Z,71.66
2022-11-15T02:39:20.782Z,71.55
2022-11-15T02:42:30.472Z,72.20
2022-11-15T02:45:24.327Z,71.92
2022-11-15T02:48:12.145Z,71.62
2022-11-15T02:50:58.597Z,71.24
2022-11-15T02:53:43.910Z,71.32
2022-11-15T02:56:29.427Z,71.22
2022-11-15T02:59:53.024Z,71.69
2022-11-15T03:03:00.398Z,71.96
2022-11-15T03:05:58.046Z,71.95
2022-11-15T03:09:11.864Z,72.02
2022-11-15T03:12:35.520Z,71.83
2022-11-15T03:15:38.404Z,72.03
2022-11-15T03:18:34.573Z,71.86
2022-11-15T03:21:22.204Z,71.66
2022-11-15T03:24:09.732Z,71.50
2022-11-15T03:26:56.949Z,71.54
2022-11-15T03:29:48.883Z,71.59
2022-11-15T03:32:39.861Z,71.62
2022-11-15T03:35:28.585Z,71.28
2022-11-15T03:38:23.827Z,71.49
2022-11-15T03:41:19.511Z,71.49
2022-11-15T03:44:17.628Z,71.21
2022-11-15T03:47:28.491Z,71.69
2022-11-15T03:50:20.698Z,71.43
2022-11-15T03:53:06.371Z,71.23
2022-11-15T03:55:51.731Z,71.35
2022-11-15T03:58:37.057Z,71.42
2022-11-15T04:01:22.556Z,71.36
2022-11-15T04:04:07.916Z,71.37
2022-11-15T04:06:53.238Z,71.40
2022-11-15T04:10:04.730Z,71.21
2022-11-15T04:12:50.404Z,71.15
2022-11-15T04:15:36.027Z,70.93
2022-11-15T04:18:21.329Z,70.58
2022-11-15T04:21:26.434Z,70.76
2022-11-15T04:24:14.395Z,70.45
2022-11-15T04:26:59.670Z,70.58
2022-11-15T04:29:45.177Z,70.13
2022-11-15T04:32:30.666Z,70.35
2022-11-15T04:35:16.030Z,70.26
2022-11-15T04:38:02.695Z,70.28
2022-11-15T04:40:47.857Z,70.15
2022-11-15T04:43:33.510Z,69.84
2022-11-15T04:46:19.138Z,69.61
2022-11-15T04:49:04.405Z,69.55
2022-11-15T04:51:50.516Z,69.51
2022-11-15T04:54:35.711Z,69.30
2022-11-15T04:57:21.072Z,69.07
2022-11-15T05:00:09.428Z,68.95
2022-11-15T05:03:13.425Z,68.96
2022-11-15T05:06:00.058Z,68.66
2022-11-15T05:08:45.431Z,68.69
2022-11-15T05:11:30.747Z,68.69
2022-11-15T05:14:16.615Z,68.59
2022-11-15T05:17:02.295Z,68.98
2022-11-15T05:19:47.543Z,68.70
2022-11-15T05:22:33.125Z,68.65
2022-11-15T05:25:19.348Z,68.74
2022-11-15T05:28:04.508Z,68.79
2022-11-15T05:30:50.126Z,68.43
2022-11-15T05:33:37.126Z,68.57
2022-11-15T05:36:39.938Z,68.60
2022-11-15T05:39:27.022Z,68.42
2022-11-15T05:42:16.520Z,68.46
2022-11-15T05:45:04.229Z,68.27
2022-11-15T05:47:51.576Z,68.36
2022-11-15T05:50:40.542Z,68.37
2022-11-15T05:53:27.174Z,68.43
2022-11-15T05:56:13.560Z,68.36
2022-11-15T05:59:00.298Z,68.28
2022-11-15T06:01:46.131Z,68.10
2022-11-15T06:04:31.411Z,67.73
2022-11-15T06:07:16.991Z,67.63
2022-11-15T06:10:02.683Z,67.43
2022-11-15T06:12:48.041Z,67.40
2022-11-15T06:15:35.358Z,67.32
2022-11-15T06:18:21.146Z,67.39
2022-11-15T06:21:07.083Z,67.07
2022-11-15T06:23:52.622Z,67.38
2022-11-15T06:26:38.077Z,67.15
2022-11-15T06:29:23.473Z,67.12
2022-11-15T06:32:08.717Z,67.24
2022-11-15T06:34:54.355Z,67.36
2022-11-15T06:37:41.880Z,67.42
2022-11-15T06:40:27.417Z,67.38
2022-11-15T06:43:13.056Z,67.37
2022-11-15T06:46:03.135Z,67.51
2022-11-15T06:48:48.835Z,67.46
2022-11-15T06:51:34.055Z,67.45
2022-11-15T06:54:19.576Z,67.18
2022-11-15T06:57:08.008Z,67.24
2022-11-15T06:59:53.594Z,67.40
2022-11-15T07:02:39.033Z,67.35
2022-11-15T07:05:24.546Z,67.43
2022-11-15T07:08:10.661Z,67.42
2022-11-15T07:10:59.854Z,67.41
2022-11-15T07:13:44.983Z,67.36
2022-11-15T07:16:30.198Z,67.36
2022-11-15T07:19:15.613Z,67.26
2022-11-15T07:22:00.989Z,67.21
2022-11-15T07:24:46.494Z,67.19
2022-11-15T07:27:32.125Z,67.00
2022-11-15T07:30:17.418Z,66.92
2022-11-15T07:33:02.867Z,66.95
2022-11-15T07:35:51.385Z,66.91
2022-11-15T07:38:42.495Z,66.70
2022-11-15T07:41:28.614Z,66.86
2022-11-15T07:44:14.531Z,66.39
2022-11-15T07:46:59.943Z,66.63
2022-11-15T07:49:47.057Z,65.98
2022-11-15T07:52:32.143Z,66.20
2022-11-15T07:55:17.487Z,66.02
2022-11-15T07:58:08.647Z,65.82
2022-11-15T08:00:53.654Z,66.08
2022-11-15T08:03:39.564Z,65.94
2022-11-15T08:06:25.162Z,65.90
2022-11-15T08:09:10.611Z,65.91
2022-11-15T08:11:55.977Z,65.98
2022-11-15T08:14:41.438Z,65.49
2022-11-15T08:17:26.973Z,65.37
2022-11-15T08:20:12.622Z,65.08
2022-11-15T08:22:59.539Z,65.21
2022-11-15T08:25:44.836Z,64.91
2022-11-15T08:28:30.692Z,64.84
2022-11-15T08:31:18.791Z,64.66
2022-11-15T08:34:05.395Z,64.94
2022-11-15T08:36:50.758Z,64.43
2022-11-15T08:39:36.125Z,64.17
2022-11-15T08:42:21.365Z,63.78
2022-11-15T08:45:08.328Z,63.29
2022-11-15T08:47:54.566Z,63.04
2022-11-15T08:50:44.061Z,63.08
2022-11-15T08:53:29.528Z,62.58
2022-11-15T08:56:16.306Z,62.96
2022-11-15T08:59:01.624Z,62.86
2022-11-15T09:01:47.072Z,63.00
2022-11-15T09:04:32.414Z,62.60
2022-11-15T09:07:18.057Z,62.87
2022-11-15T09:10:04.263Z,62.57
2022-11-15T09:12:49.625Z,61.95
2022-11-15T09:15:35.324Z,62.02
2022-11-15T09:18:23.410Z,62.27
2022-11-15T09:21:09.886Z,62.06
2022-11-15T09:23:55.450Z,61.84
2022-11-15T09:26:41.384Z,61.87
2022-11-15T09:29:27.041Z,61.57
2022-11-15T09:32:12.689Z,61.56
2022-11-15T09:34:58.594Z,61.01
2022-11-15T09:37:44.137Z,60.98
2022-11-15T09:40:32.172Z,60.58
2022-11-15T09:43:40.703Z,59.94
2022-11-15T09:46:44.265Z,60.27
2022-11-15T09:49:43.182Z,60.46
2022-11-15T09:52:19.667Z,60.59
2022-11-15T09:54:55.123Z,59.66
2022-11-15T09:57:31.393Z,59.62
2022-11-15T10:00:31.082Z,59.26
2022-11-15T10:02:51.231Z,59.79
2022-11-15T10:05:25.085Z,59.29
2022-11-15T10:08:14.837Z,58.85
2022-11-15T10:10:47.985Z,58.75
2022-11-15T10:13:30.856Z,58.70
2022-11-15T10:16:11.702Z,58.67
2022-11-15T10:19:11.916Z,57.41
2022-11-15T10:21:53.441Z,58.17
2022-11-15T10:24:25.062Z,58.25
2022-11-15T10:26:51.841Z,57.30
2022-11-15T10:29:26.891Z,57.48
2022-11-15T10:31:54.143Z,57.54
2022-11-15T10:34:23.422Z,57.65
2022-11-15T10:36:57.451Z,57.52
2022-11-15T10:39:24.770Z,56.87
2022-11-15T10:41:51.917Z,57.36
2022-11-15T10:44:19.564Z,57.03
2022-11-15T10:47:07.851Z,56.86
2022-11-15T10:49:35.812Z,56.81
2022-11-15T10:52:21.232Z,56.67
2022-11-15T10:55:01.140Z,57.09
2022-11-15T10:57:31.778Z,56.39
2022-11-15T11:00:08.620Z,56.39
2022-11-15T11:02:37.150Z,56.75
2022-11-15T11:05:25.507Z,57.05
2022-11-15T11:08:05.877Z,55.60
2022-11-15T11:10:50.915Z,56.12
2022-11-15T11:13:26.271Z,56.59
2022-11-15T11:16:14.785Z,55.30
2022-11-15T11:18:47.365Z,55.85
2022-11-15T11:21:46.399Z,55.16
2022-11-15T11:24:18.248Z,55.04
2022-11-15T11:26:59.120Z,54.56
2022-11-15T11:29:42.613Z,55.14
2022-11-15T11:32:35.528Z,54.76
2022-11-15T11:35:25.754Z,54.99
2022-11-15T11:37:58.835Z,55.28
2022-11-15T11:40:44.458Z,54.94
2022-11-15T11:43:45.417Z,53.82
2022-11-15T11:46:21.404Z,54.29
2022-11-15T11:49:14.979Z,53.32
2022-11-15T11:52:08.797Z,53.67
2022-11-15T11:54:46.660Z,54.21
2022-11-15T11:57:30.801Z,53.67
2022-11-15T12:00:06.171Z,55.30
2022-11-15T12:03:08.837Z,54.21
2022-11-15T12:05:43.105Z,54.75
2022-11-15T12:08:36.933Z,53.63
2022-11-15T12:11:18.515Z,53.82
2022-11-15T12:13:49.200Z,53.78
2022-11-15T12:16:21.224Z,53.07
2022-11-15T12:18:54.652Z,53.73
2022-11-15T12:21:38.672Z,52.88
2022-11-15T12:24:19.797Z,52.77
2022-11-15T12:27:04.673Z,52.83
2022-11-15T12:29:53.930Z,51.99
2022-11-15T12:32:33.957Z,52.61
2022-11-15T12:35:02.930Z,52.87
2022-11-15T12:37:45.136Z,50.90
2022-11-15T12:40:34.634Z,51.28
2022-11-15T12:43:16.655Z,52.38
2022-11-15T12:45:45.940Z,52.26
2022-11-15T12:48:19.121Z,50.90
2022-11-15T12:50:51.845Z,51.81
2022-11-15T12:53:28.735Z,50.77
2022-11-15T12:56:17.731Z,49.61
2022-11-15T12:59:03.437Z,49.36
2022-11-15T13:01:51.492Z,50.53
2022-11-15T13:04:22.616Z,49.81
2022-11-15T13:07:01.999Z,48.03
2022-11-15T13:09:35.244Z,49.33
2022-11-15T13:12:15.960Z,48.98
2022-11-15T13:14:47.270Z,49.57
2022-11-15T13:17:19.699Z,49.21
2022-11-15T13:19:58.247Z,48.25
2022-11-15T13:22:43.976Z,48.13
2022-11-15T13:25:40.857Z,47.88
2022-11-15T13:28:16.574Z,49.04
2022-11-15T13:30:59.096Z,48.10
2022-11-15T13:33:35.926Z,49.13
2022-11-15T13:36:25.977Z,47.80
2022-11-15T13:39:03.276Z,48.16
2022-11-15T13:41:33.873Z,49.19
2022-11-15T13:44:02.695Z,49.21
2022-11-15T13:46:34.113Z,48.95
2022-11-15T13:49:03.834Z,48.46
2022-11-15T13:51:50.416Z,48.56
2022-11-15T13:54:24.844Z,49.44
2022-11-15T13:56:57.010Z,50.18
2022-11-15T13:59:30.236Z,50.23
2022-11-15T14:02:22.718Z,49.27
2022-11-15T14:04:54.877Z,50.48
2022-11-15T14:07:25.341Z,50.68
2022-11-15T14:09:52.775Z,50.64
2022-11-15T14:12:33.283Z,49.88
2022-11-15T14:15:03.784Z,50.68
2022-11-15T14:17:30.523Z,51.54
2022-11-15T14:19:58.621Z,51.59
2022-11-15T14:22:30.599Z,51.56
2022-11-15T14:25:16.340Z,52.03
2022-11-15T14:27:45.460Z,52.55
2022-11-15T14:30:17.508Z,52.44
2022-11-15T14:32:50.783Z,52.88
2022-11-15T14:35:22.041Z,53.42
2022-11-15T14:37:54.238Z,53.61
2022-11-15T14:40:23.975Z,54.11
2022-11-15T14:42:51.214Z,53.99
2022-11-15T14:45:20.297Z,54.04
2022-11-15T14:47:47.358Z,54.28
2022-11-15T14:50:16.425Z,54.72
2022-11-15T14:52:44.314Z,54.54
2022-11-15T14:55:33.576Z,54.78
2022-11-15T14:58:00.566Z,55.09
2022-11-15T15:00:32.364Z,55.14
2022-11-15T15:03:03.630Z,55.08
2022-11-15T15:05:38.456Z,54.87
2022-11-15T15:08:07.018Z,55.33
2022-11-15T15:10:40.734Z,55.85
2022-11-15T15:13:19.708Z,55.88
2022-11-15T15:15:47.580Z,56.08
2022-11-15T15:18:14.469Z,56.50
2022-11-15T15:20:42.814Z,56.85
2022-11-15T15:23:18.540Z,57.19
2022-11-15T15:25:46.700Z,57.18
2022-11-15T15:28:14.574Z,57.32
2022-11-15T15:30:41.652Z,57.39
2022-11-15T15:33:08.497Z,57.73
2022-11-15T15:35:36.710Z,57.78
2022-11-15T15:38:04.484Z,57.96
2022-11-15T15:40:33.810Z,58.06
2022-11-15T15:43:01.076Z,58.29
2022-11-15T15:45:28.841Z,58.33
2022-11-15T15:47:56.161Z,58.57
2022-11-15T15:50:24.676Z,58.83
2022-11-15T15:52:54.035Z,58.63
2022-11-15T15:55:21.099Z,58.64
2022-11-15T15:57:48.616Z,58.84
2022-11-15T16:00:16.321Z,58.94
2022-11-15T16:02:43.718Z,59.00
2022-11-15T16:05:11.693Z,58.77
2022-11-15T16:07:38.636Z,58.50
2022-11-15T16:10:19.670Z,58.85
2022-11-15T16:12:47.733Z,58.92
2022-11-15T16:15:14.785Z,58.95
2022-11-15T16:17:53.922Z,58.87
2022-11-15T16:20:40.498Z,58.67
2022-11-15T16:23:09.972Z,58.51
2022-11-15T16:25:43.439Z,58.73
2022-11-15T16:28:26.038Z,58.69
2022-11-15T16:31:09.933Z,58.82
2022-11-15T16:33:37.676Z,58.76
2022-11-15T16:36:06.301Z,58.62
2022-11-15T16:38:34.012Z,58.51
2022-11-15T16:41:01.751Z,58.43
2022-11-15T16:43:28.656Z,58.29
2022-11-15T16:45:55.744Z,58.35
2022-11-15T16:48:25.580Z,58.55
2022-11-15T16:50:56.952Z,58.45
2022-11-15T16:53:24.230Z,58.36
2022-11-15T16:55:51.112Z,58.49
2022-11-15T16:58:17.939Z,58.40
2022-11-15T17:00:44.838Z,58.34
2022-11-15T17:03:12.018Z,58.36
2022-11-15T17:05:38.831Z,58.37
2022-11-15T17:08:06.536Z,58.42
2022-11-15T17:10:33.313Z,58.30
2022-11-15T17:13:00.543Z,58.53
2022-11-15T17:15:27.754Z,58.72
2022-11-15T17:17:55.411Z,58.64
2022-11-15T17:20:25.545Z,58.85
2022-11-15T17:22:53.057Z,58.77
2022-11-15T17:25:20.508Z,58.87
2022-11-15T17:27:47.408Z,59.07
2022-11-15T17:30:20.251Z,59.26
2022-11-15T17:32:50.151Z,59.44
2022-11-15T17:35:16.921Z,59.80
2022-11-15T17:37:43.910Z,60.25
2022-11-15T17:40:11.230Z,60.86
2022-11-15T17:42:41.185Z,61.00
2022-11-15T17:45:10.440Z,60.83
2022-11-15T17:47:37.828Z,61.04
2022-11-15T17:50:04.940Z,60.88
2022-11-15T17:52:31.747Z,61.00
2022-11-15T17:54:58.536Z,60.95
2022-11-15T17:57:25.864Z,61.01
2022-11-15T17:59:52.777Z,61.05
2022-11-15T18:02:19.635Z,61.30
2022-11-15T18:04:46.485Z,61.77
2022-11-15T18:07:14.188Z,61.89
2022-11-15T18:09:44.100Z,62.03
2022-11-15T18:12:12.162Z,61.70
2022-11-15T18:14:39.351Z,61.62
2022-11-15T18:17:06.720Z,61.62
2022-11-15T18:19:33.797Z,61.80
2022-11-15T18:22:01.550Z,61.86
2022-11-15T18:24:42.919Z,61.99
2022-11-15T18:27:10.251Z,61.69
2022-11-15T18:29:38.179Z,61.48
2022-11-15T18:32:11.799Z,61.57
2022-11-15T18:34:41.367Z,61.58
2022-11-15T18:37:08.150Z,61.85
2022-11-15T18:39:35.328Z,62.11
2022-11-15T18:42:02.498Z,62.06
2022-11-15T18:44:30.431Z,62.15
2022-11-15T18:46:57.554Z,62.00
2022-11-15T18:49:24.434Z,61.96
2022-11-15T18:51:51.231Z,62.14
2022-11-15T18:54:19.381Z,62.71
2022-11-15T18:56:47.090Z,62.75
2022-11-15T18:59:14.849Z,63.21
2022-11-15T19:01:44.251Z,63.68
2022-11-15T19:04:13.588Z,63.65
2022-11-15T19:06:42.460Z,63.96
2022-11-15T19:09:11.129Z,64.00
2022-11-15T19:11:40.118Z,64.05
2022-11-15T19:14:09.533Z,64.02
2022-11-15T19:16:52.353Z,64.34
2022-11-15T19:19:25.205Z,64.57
2022-11-15T19:21:52.976Z,64.45
2022-11-15T19:24:19.838Z,64.56
2022-11-15T19:26:47.105Z,64.79
2022-11-15T19:29:14.289Z,65.03
2022-11-15T19:31:41.991Z,64.81
2022-11-15T19:34:09.388Z,65.06
2022-11-15T19:36:43.627Z,65.40
2022-11-15T19:39:13.148Z,65.61
2022-11-15T19:41:42.602Z,65.94
2022-11-15T19:44:11.500Z,65.65
2022-11-15T19:46:39.367Z,65.41
2022-11-15T19:49:08.131Z,65.54
2022-11-15T19:51:34.948Z,65.57
2022-11-15T19:54:06.438Z,65.25
2022-11-15T19:56:34.619Z,65.58
2022-11-15T19:59:02.246Z,65.45
2022-11-15T20:01:32.331Z,65.17
2022-11-15T20:04:00.413Z,65.00
2022-11-15T20:06:30.889Z,65.23
2022-11-15T20:08:58.906Z,64.91
2022-11-15T20:11:27.570Z,65.00
2022-11-15T20:13:58.672Z,65.09
2022-11-15T20:16:25.727Z,65.14
2022-11-15T20:18:53.319Z,64.90
2022-11-15T20:21:21.775Z,65.12
2022-11-15T20:23:50.942Z,65.15
2022-11-15T20:26:19.319Z,65.35
2022-11-15T20:28:48.186Z,65.15
2022-11-15T20:31:15.584Z,65.14
2022-11-15T20:33:42.382Z,65.42
2022-11-15T20:36:15.666Z,65.69
2022-11-15T20:38:43.816Z,65.60
2022-11-15T20:41:11.899Z,65.43
2022-11-15T20:43:38.774Z,65.35
2022-11-15T20:46:05.632Z,65.49
2022-11-15T20:48:32.845Z,65.80
2022-11-15T20:51:14.507Z,66.53
2022-11-15T20:53:43.400Z,66.85
2022-11-15T20:56:16.210Z,67.22
2022-11-15T20:58:44.777Z,67.26
2022-11-15T21:01:15.236Z,67.15
2022-11-15T21:03:42.361Z,66.65
2022-11-15T21:06:10.035Z,67.06
2022-11-15T21:08:56.025Z,66.78
2022-11-15T21:11:43.489Z,67.02
2022-11-15T21:14:10.281Z,66.88
2022-11-15T21:16:38.139Z,66.86
2022-11-15T21:19:06.572Z,66.84
2022-11-15T21:21:34.087Z,66.64
2022-11-15T21:24:06.773Z,66.82
2022-11-15T21:26:34.504Z,67.01
2022-11-15T21:29:02.005Z,66.47
2022-11-15T21:31:29.334Z,66.26
2022-11-15T21:33:56.075Z,66.40
2022-11-15T21:36:25.093Z,66.59
2022-11-15T21:38:51.872Z,66.51
2022-11-15T21:41:18.674Z,66.38
2022-11-15T21:43:45.453Z,66.39
2022-11-15T21:46:12.203Z,66.27
2022-11-15T21:48:38.955Z,66.28
2022-11-15T21:51:08.428Z,66.32
2022-11-15T21:53:35.554Z,66.08
2022-11-15T21:56:03.497Z,66.22
2022-11-15T21:58:31.386Z,66.38
2022-11-15T22:01:17.499Z,66.40
2022-11-15T22:03:45.103Z,66.39
2022-11-15T22:06:17.424Z,66.37
2022-11-15T22:08:45.747Z,66.37
2022-11-15T22:11:12.854Z,66.56
2022-11-15T22:13:39.880Z,66.34
2022-11-15T22:16:07.467Z,66.27
2022-11-15T22:18:34.612Z,66.21
2022-11-15T22:21:04.536Z,65.99
2022-11-15T22:23:33.405Z,66.03
2022-11-15T22:26:01.147Z,65.61
2022-11-15T22:28:28.230Z,65.40
2022-11-15T22:30:55.422Z,65.48
2022-11-15T22:33:25.770Z,65.19
2022-11-15T22:35:53.387Z,65.18
2022-11-15T22:38:20.313Z,65.15
2022-11-15T22:40:47.383Z,64.83
2022-11-15T22:43:16.139Z,65.34
2022-11-15T22:45:51.797Z,65.32
2022-11-15T22:48:20.843Z,65.48
2022-11-15T22:50:47.982Z,65.31
2022-11-15T22:53:14.803Z,65.29
2022-11-15T22:55:42.137Z,65.23
2022-11-15T22:58:09.436Z,65.32
2022-11-15T23:00:36.752Z,65.15
2022-11-15T23:03:04.163Z,65.08
2022-11-15T23:05:31.143Z,65.13
2022-11-15T23:07:57.951Z,64.89
2022-11-15T23:10:43.494Z,64.68
2022-11-15T23:13:18.973Z,64.61
2022-11-15T23:16:09.788Z,64.76
2022-11-15T23:18:38.926Z,64.74
2022-11-15T23:21:14.469Z,64.56
2022-11-15T23:23:41.420Z,64.52
2022-11-15T23:26:08.637Z,64.50
2022-11-15T23:28:36.157Z,64.28
2022-11-15T23:31:26.345Z,64.23
2022-11-15T23:33:59.202Z,64.32
2022-11-15T23:36:28.008Z,64.26
2022-11-15T23:38:55.441Z,64.40
2022-11-15T23:41:23.904Z,64.26
2022-11-15T23:43:51.614Z,64.29
2022-11-15T23:46:18.618Z,64.32
2022-11-15T23:48:45.394Z,64.36
2022-11-15T23:51:12.263Z,64.28
2022-11-15T23:53:39.118Z,64.06
2022-11-15T23:56:15.210Z,64.26
2022-11-15T23:58:43.325Z,64.06
